Time;durP1;ratioP1;P1;durP2;ratioP2;P2;SDS_P1;SDS_P2;PMS_P1;PMS_P2;Temp;Humidity;BMP_temperature;BMP_pressure;BME280_temperature;BME280_humidity;BME280_pressure;Samples;Min_cycle;Max_cycle;Signal;HPM_P1;HPM_P2
2023/10/26 00:00:25;;;;;;;54.03;36.90;;;;;;;;;;5067016;28;20444;-72
2023/10/26 00:02:51;;;;;;;56.85;37.75;;;;;;;;;;5067217;28;20017;-72
2023/10/26 00:05:18;;;;;;;57.90;37.67;;;;;;;;;;5056644;28;20108;-72
2023/10/26 00:07:44;;;;;;;55.58;36.42;;;;;;;;;;5071352;28;20025;-72
2023/10/26 00:10:10;;;;;;;59.13;35.20;;;;;;;;;;5063340;28;20025;-72
2023/10/26 00:12:36;;;;;;;57.45;36.47;;;;;;;;;;5060953;28;20048;-71
2023/10/26 00:15:03;;;;;;;56.25;37.70;;;;;;;;;;5060410;28;20075;-72
2023/10/26 00:17:32;;;;;;;58.72;36.40;;;;;;;;;;5073303;28;20030;-72
2023/10/26 00:19:58;;;;;;;56.28;36.53;;;;;;;;;;5067614;28;20119;-72
2023/10/26 00:22:24;;;;;;;62.15;37.97;;;;;;;;;;5074278;28;20088;-72
2023/10/26 00:24:51;;;;;;;59.17;38.20;;;;;;;;;;5061670;28;20032;-72
2023/10/26 00:27:19;;;;;;;63.20;38.95;;;;;;;;;;5063570;28;20020;-72
2023/10/26 00:29:45;;;;;;;55.92;37.40;;;;;;;;;;5067687;28;20033;-72
2023/10/26 00:32:11;;;;;;;55.67;37.03;;;;;;;;;;5074039;28;20031;-72
2023/10/26 00:34:37;;;;;;;58.38;36.53;;;;;;;;;;5071552;28;20505;-72
2023/10/26 00:37:04;;;;;;;58.90;37.65;;;;;;;;;;5067451;28;20028;-72
2023/10/26 00:39:29;;;;;;;62.72;37.28;;;;;;;;;;5061429;28;20127;-72
2023/10/26 00:41:56;;;;;;;56.20;36.38;;;;;;;;;;5058898;28;20052;-71
2023/10/26 00:44:22;;;;;;;61.35;39.53;;;;;;;;;;5067751;28;20029;-71
2023/10/26 00:46:49;;;;;;;62.30;38.15;;;;;;;;;;5065718;28;20032;-72
2023/10/26 00:49:15;;;;;;;60.92;39.53;;;;;;;;;;5063772;28;20075;-72
2023/10/26 00:51:44;;;;;;;60.85;39.20;;;;;;;;;;5072599;28;20021;-71
2023/10/26 00:54:10;;;;;;;61.28;39.08;;;;;;;;;;5072964;28;20032;-72
2023/10/26 00:56:37;;;;;;;65.90;38.78;;;;;;;;;;5050075;28;20028;-72
2023/10/26 00:59:04;;;;;;;65.25;37.58;;;;;;;;;;5051751;28;20432;-72
2023/10/26 01:01:30;;;;;;;60.40;36.83;;;;;;;;;;5051708;28;20530;-72
2023/10/26 01:03:57;;;;;;;64.70;39.33;;;;;;;;;;5072459;28;20021;-72
2023/10/26 01:06:23;;;;;;;62.80;39.40;;;;;;;;;;5052172;28;20525;-72
2023/10/26 01:11:54;;;;;;;66.40;38.65;;;;;;;;;;5059653;28;20171;-72
2023/10/26 01:14:20;;;;;;;65.28;38.33;;;;;;;;;;5054363;28;20060;-72
2023/10/26 01:16:46;;;;;;;63.25;39.25;;;;;;;;;;5067939;28;20033;-72
2023/10/26 01:19:12;;;;;;;69.55;37.95;;;;;;;;;;5049329;28;20021;-72
2023/10/26 01:21:51;;;;;;;61.90;38.83;;;;;;;;;;5058004;28;20021;-72
2023/10/26 01:24:17;;;;;;;73.82;42.58;;;;;;;;;;5069728;28;20085;-72
2023/10/26 01:26:43;;;;;;;71.05;41.03;;;;;;;;;;5056252;28;20108;-72
2023/10/26 01:29:09;;;;;;;62.38;38.30;;;;;;;;;;5059266;28;20047;-72
2023/10/26 01:31:35;;;;;;;67.80;40.13;;;;;;;;;;5068486;28;20494;-72
2023/10/26 01:34:13;;;;;;;69.93;41.85;;;;;;;;;;5072052;28;20415;-72
2023/10/26 01:36:39;;;;;;;66.43;40.33;;;;;;;;;;5058629;28;20035;-72
2023/10/26 01:39:05;;;;;;;66.18;39.47;;;;;;;;;;5078822;28;20054;-72
2023/10/26 01:41:32;;;;;;;68.22;40.17;;;;;;;;;;5072148;28;20033;-72
2023/10/26 01:43:58;;;;;;;66.28;38.92;;;;;;;;;;5069528;28;20021;-72
2023/10/26 01:46:24;;;;;;;65.95;39.83;;;;;;;;;;5070657;28;20027;-72
2023/10/26 01:48:50;;;;;;;70.72;41.10;;;;;;;;;;5069677;28;20036;-72
2023/10/26 01:51:16;;;;;;;72.85;41.47;;;;;;;;;;5069512;28;20074;-72
2023/10/26 01:53:42;;;;;;;73.97;42.42;;;;;;;;;;5066081;28;20025;-72
2023/10/26 01:56:08;;;;;;;79.35;44.50;;;;;;;;;;5060765;28;20028;-72
2023/10/26 01:58:34;;;;;;;79.85;44.40;;;;;;;;;;5060654;28;20036;-72
2023/10/26 02:01:22;;;;;;;68.90;40.40;;;;;;;;;;5064700;28;20493;-72
2023/10/26 02:03:48;;;;;;;78.07;43.58;;;;;;;;;;5068576;28;20082;-72
2023/10/26 02:06:14;;;;;;;74.95;42.38;;;;;;;;;;5064474;28;20428;-72
2023/10/26 02:08:40;;;;;;;76.38;44.47;;;;;;;;;;5072299;28;20078;-72
2023/10/26 02:11:06;;;;;;;82.55;47.40;;;;;;;;;;5068570;28;20035;-71
2023/10/26 02:13:35;;;;;;;79.80;44.72;;;;;;;;;;5042463;28;20382;-72
2023/10/26 02:16:01;;;;;;;84.10;44.70;;;;;;;;;;5057449;28;20021;-72
2023/10/26 02:18:28;;;;;;;82.65;44.67;;;;;;;;;;5068105;28;20457;-72
2023/10/26 02:20:54;;;;;;;81.82;45.72;;;;;;;;;;5060611;28;20355;-72
2023/10/26 02:23:21;;;;;;;73.85;44.47;;;;;;;;;;5066865;28;20017;-72
2023/10/26 02:25:47;;;;;;;80.32;46.28;;;;;;;;;;5064132;28;20127;-72
2023/10/26 02:28:15;;;;;;;82.18;46.85;;;;;;;;;;5067917;28;20382;-72
2023/10/26 02:30:43;;;;;;;78.45;44.63;;;;;;;;;;5052094;28;20070;-72
2023/10/26 02:33:09;;;;;;;79.10;46.00;;;;;;;;;;5067450;28;20027;-72
2023/10/26 02:35:35;;;;;;;78.32;45.45;;;;;;;;;;5066079;28;20017;-72
2023/10/26 02:38:01;;;;;;;73.85;42.83;;;;;;;;;;5036619;28;20032;-72
2023/10/26 02:40:27;;;;;;;72.57;42.55;;;;;;;;;;5052666;28;20053;-72
2023/10/26 02:42:53;;;;;;;68.75;40.53;;;;;;;;;;5065229;28;20083;-72
2023/10/26 02:45:19;;;;;;;75.25;41.17;;;;;;;;;;5060514;28;20381;-72
2023/10/26 02:47:45;;;;;;;67.38;39.38;;;;;;;;;;5052853;28;20024;-72
2023/10/26 02:50:11;;;;;;;67.20;39.08;;;;;;;;;;5060519;28;20048;-70
2023/10/26 02:52:37;;;;;;;64.78;37.10;;;;;;;;;;5042715;28;20478;-70
2023/10/26 02:55:04;;;;;;;61.97;38.15;;;;;;;;;;5059143;28;20382;-70
2023/10/26 02:57:30;;;;;;;69.22;40.30;;;;;;;;;;5051560;28;20380;-70
2023/10/26 02:59:56;;;;;;;66.35;38.97;;;;;;;;;;5071841;28;20120;-70
2023/10/26 03:02:22;;;;;;;66.43;38.65;;;;;;;;;;5069429;28;20385;-70
2023/10/26 03:04:48;;;;;;;62.08;37.45;;;;;;;;;;5066895;28;20032;-70
2023/10/26 03:07:22;;;;;;;62.90;37.47;;;;;;;;;;5068247;28;20031;-71
2023/10/26 03:09:50;;;;;;;61.30;36.13;;;;;;;;;;5062449;28;20045;-71
2023/10/26 03:12:16;;;;;;;62.75;37.90;;;;;;;;;;5052962;28;20025;-70
2023/10/26 03:14:42;;;;;;;63.45;37.33;;;;;;;;;;5067325;28;20462;-71
2023/10/26 03:17:08;;;;;;;63.28;36.42;;;;;;;;;;5060900;28;20039;-71
2023/10/26 03:19:34;;;;;;;61.95;37.22;;;;;;;;;;5062057;28;20040;-71
2023/10/26 03:22:00;;;;;;;61.28;35.45;;;;;;;;;;5065949;28;20033;-71
2023/10/26 03:24:26;;;;;;;58.40;35.78;;;;;;;;;;5068220;28;20021;-71
2023/10/26 03:26:52;;;;;;;54.20;33.53;;;;;;;;;;5048378;28;20077;-71
2023/10/26 03:29:18;;;;;;;56.90;35.45;;;;;;;;;;5069293;28;20028;-71
2023/10/26 03:31:44;;;;;;;57.13;33.33;;;;;;;;;;5061795;28;20332;-71
2023/10/26 03:34:10;;;;;;;53.15;32.50;;;;;;;;;;5066265;28;20025;-71
2023/10/26 03:36:36;;;;;;;58.67;34.38;;;;;;;;;;5071004;28;20024;-71
2023/10/26 03:39:02;;;;;;;59.15;36.08;;;;;;;;;;5059801;28;20021;-71
2023/10/26 03:41:28;;;;;;;62.00;36.85;;;;;;;;;;5065053;28;20036;-71
2023/10/26 03:43:54;;;;;;;58.15;35.33;;;;;;;;;;5066352;28;20027;-71
2023/10/26 03:46:20;;;;;;;56.28;35.10;;;;;;;;;;5075137;28;20066;-71
2023/10/26 03:48:46;;;;;;;55.30;35.13;;;;;;;;;;5068080;28;20028;-71
2023/10/26 03:51:12;;;;;;;57.05;35.33;;;;;;;;;;5065668;28;20017;-71
2023/10/26 03:53:38;;;;;;;59.20;34.35;;;;;;;;;;5068208;28;20028;-71
2023/10/26 03:56:05;;;;;;;61.83;36.85;;;;;;;;;;5064442;28;20031;-71
2023/10/26 03:58:30;;;;;;;60.13;36.03;;;;;;;;;;5061548;28;20086;-71
2023/10/26 04:00:57;;;;;;;61.42;36.55;;;;;;;;;;5065360;28;20040;-70
2023/10/26 04:03:23;;;;;;;61.03;37.67;;;;;;;;;;5064170;28;20025;-70
2023/10/26 04:05:49;;;;;;;65.25;38.83;;;;;;;;;;5063463;28;20036;-71
2023/10/26 04:11:19;;;;;;;61.70;36.92;;;;;;;;;;5070141;28;20382;-71
2023/10/26 04:13:45;;;;;;;67.40;38.47;;;;;;;;;;5071914;28;20033;-71
2023/10/26 04:16:11;;;;;;;66.40;37.05;;;;;;;;;;5053469;28;20023;-71
2023/10/26 04:18:37;;;;;;;63.17;37.85;;;;;;;;;;5074055;28;20494;-71
2023/10/26 04:21:04;;;;;;;66.32;37.22;;;;;;;;;;5057076;28;20143;-71
2023/10/26 04:23:30;;;;;;;70.43;38.90;;;;;;;;;;5073126;28;20535;-71
2023/10/26 04:25:56;;;;;;;69.55;38.97;;;;;;;;;;5060625;28;20037;-71
2023/10/26 04:28:22;;;;;;;70.00;38.70;;;;;;;;;;5073950;28;20016;-72
2023/10/26 04:30:49;;;;;;;67.80;36.55;;;;;;;;;;5059400;28;20455;-71
2023/10/26 04:33:15;;;;;;;69.03;38.25;;;;;;;;;;5071558;28;20468;-71
2023/10/26 04:35:42;;;;;;;74.72;39.13;;;;;;;;;;5057002;28;20052;-71
2023/10/26 04:38:11;;;;;;;69.88;38.00;;;;;;;;;;5072347;28;20021;-71
2023/10/26 04:40:41;;;;;;;68.22;36.80;;;;;;;;;;5054057;28;20033;-71
2023/10/26 04:43:08;;;;;;;64.50;37.67;;;;;;;;;;5068991;28;20021;-71
2023/10/26 04:45:34;;;;;;;66.63;36.47;;;;;;;;;;5059090;28;20017;-72
2023/10/26 04:48:01;;;;;;;71.60;37.38;;;;;;;;;;5072981;28;20089;-72
2023/10/26 04:50:27;;;;;;;72.97;36.70;;;;;;;;;;5071690;28;20028;-71
2023/10/26 04:52:53;;;;;;;70.22;35.80;;;;;;;;;;5063955;28;20098;-71
2023/10/26 04:55:19;;;;;;;72.43;38.78;;;;;;;;;;5055247;28;20127;-72
2023/10/26 04:57:45;;;;;;;66.47;35.10;;;;;;;;;;5063123;28;20031;-71
2023/10/26 05:00:12;;;;;;;72.13;35.88;;;;;;;;;;5060048;28;20195;-71
2023/10/26 05:02:38;;;;;;;68.25;37.38;;;;;;;;;;5057572;28;20075;-71
2023/10/26 05:05:05;;;;;;;74.93;38.30;;;;;;;;;;5058549;28;20479;-71
2023/10/26 05:07:31;;;;;;;81.88;40.40;;;;;;;;;;5050987;28;20078;-71
2023/10/26 05:09:57;;;;;;;72.07;37.22;;;;;;;;;;5060727;28;20033;-70
2023/10/26 05:12:23;;;;;;;73.03;38.15;;;;;;;;;;5062910;28;20032;-70
2023/10/26 05:14:50;;;;;;;83.78;39.97;;;;;;;;;;5068127;28;20036;-70
2023/10/26 05:17:15;;;;;;;83.25;41.78;;;;;;;;;;5071478;28;20020;-71
2023/10/26 05:19:41;;;;;;;70.82;37.75;;;;;;;;;;5062255;28;20513;-71
2023/10/26 05:22:07;;;;;;;81.68;41.25;;;;;;;;;;5054855;28;20051;-72
2023/10/26 05:24:34;;;;;;;74.00;37.90;;;;;;;;;;5067103;28;20024;-70
2023/10/26 05:27:00;;;;;;;81.28;39.28;;;;;;;;;;5055516;28;20544;-72
2023/10/26 05:29:28;;;;;;;87.65;42.13;;;;;;;;;;5068371;28;20028;-71
2023/10/26 05:31:55;;;;;;;81.22;40.95;;;;;;;;;;5056945;28;20557;-72
2023/10/26 05:34:21;;;;;;;87.80;42.60;;;;;;;;;;5065312;28;20449;-71
2023/10/26 05:36:47;;;;;;;85.32;41.00;;;;;;;;;;5072397;28;20031;-70
2023/10/26 05:39:13;;;;;;;81.15;40.80;;;;;;;;;;5070292;28;20025;-70
2023/10/26 05:41:39;;;;;;;81.53;42.90;;;;;;;;;;5063723;28;20108;-70
2023/10/26 05:44:05;;;;;;;79.30;40.85;;;;;;;;;;5068942;28;20515;-70
2023/10/26 05:46:31;;;;;;;77.88;39.88;;;;;;;;;;5057251;28;20035;-71
2023/10/26 05:48:57;;;;;;;72.95;40.10;;;;;;;;;;5058371;28;20016;-70
2023/10/26 05:51:23;;;;;;;73.68;39.70;;;;;;;;;;5060890;28;20501;-69
2023/10/26 05:53:49;;;;;;;70.63;38.45;;;;;;;;;;5061300;28;20078;-70
2023/10/26 05:56:15;;;;;;;69.97;38.15;;;;;;;;;;5060818;28;20058;-70
2023/10/26 05:58:41;;;;;;;76.25;39.30;;;;;;;;;;5067594;28;20417;-70
2023/10/26 06:01:07;;;;;;;73.53;41.65;;;;;;;;;;5064927;28;20028;-71
2023/10/26 06:03:33;;;;;;;66.85;38.33;;;;;;;;;;5062675;28;20027;-71
2023/10/26 06:06:00;;;;;;;73.15;39.42;;;;;;;;;;5066252;28;20393;-72
2023/10/26 06:08:26;;;;;;;82.97;42.55;;;;;;;;;;5060477;28;20058;-71
2023/10/26 06:10:52;;;;;;;70.45;40.40;;;32.60;1.00;;;;;;5041777;28;20032;-71
2023/10/26 06:13:18;;;;;;;73.70;41.95;;;31.20;1.00;;;;;;5063845;28;20474;-71
2023/10/26 06:15:44;;;;;;;79.40;44.92;;;31.10;1.00;;;;;;5062405;28;20434;-72
2023/10/26 06:18:09;;;;;;;75.35;41.38;;;31.10;1.00;;;;;;5050822;28;20111;-72
2023/10/26 06:20:35;;;;;;;65.13;39.22;;;31.10;1.00;;;;;;5049082;28;20052;-72
2023/10/26 06:23:02;;;;;;;73.43;40.83;;;31.10;1.00;;;;;;5066695;28;20115;-72
2023/10/26 06:25:28;;;;;;;75.43;41.40;;;31.10;1.00;;;;;;5066056;28;20382;-72
2023/10/26 06:27:55;;;;;;;64.05;36.90;;;31.10;1.00;;;;;;5067693;28;20028;-72
2023/10/26 06:30:21;;;;;;;65.32;37.78;;;31.10;1.00;;;;;;5059337;28;20041;-70
2023/10/26 06:32:46;;;;;;;59.53;36.95;;;31.10;1.00;;;;;;5064945;28;20025;-69
2023/10/26 06:35:12;;;;;;;67.22;38.58;;;31.10;1.00;;;;;;5063630;28;20091;-72
2023/10/26 06:37:38;;;;;;;65.50;37.92;;;31.10;1.00;;;;;;5059698;28;20077;-72
2023/10/26 06:40:05;;;;;;;57.80;34.25;;;31.00;1.00;;;;;;5045046;28;20040;-71
2023/10/26 06:42:31;;;;;;;59.90;34.47;;;31.00;1.00;;;;;;5064517;28;20032;-72
2023/10/26 06:44:56;;;;;;;57.33;34.83;;;31.10;1.00;;;;;;5058850;28;20021;-71
2023/10/26 06:47:22;;;;;;;51.80;32.22;;;31.20;1.00;;;;;;5060132;28;20021;-72
2023/10/26 06:49:47;;;;;;;48.35;29.88;;;31.10;1.00;;;;;;5059950;28;20047;-72
2023/10/26 06:52:13;;;;;;;53.78;32.10;;;31.10;1.00;;;;;;5049663;28;20028;-71
2023/10/26 06:54:38;;;;;;;46.53;28.77;;;31.10;1.00;;;;;;5067548;28;20490;-71
2023/10/26 06:57:04;;;;;;;52.33;32.40;;;31.10;1.00;;;;;;5068459;28;20067;-72
2023/10/26 06:59:30;;;;;;;48.30;29.67;;;31.20;1.00;;;;;;5029343;28;20494;-71
2023/10/26 07:01:56;;;;;;;52.75;33.28;;;31.20;1.00;;;;;;5062244;28;20495;-71
2023/10/26 07:04:22;;;;;;;50.40;31.52;;;31.20;1.00;;;;;;5065259;28;20029;-71
2023/10/26 07:06:48;;;;;;;50.92;32.97;;;31.20;1.00;;;;;;5053420;28;20037;-72
2023/10/26 07:09:15;;;;;;;52.38;33.47;;;31.30;1.00;;;;;;5071500;28;20470;-71
2023/10/26 07:11:41;;;;;;;46.97;30.55;;;31.20;1.00;;;;;;5071423;28;20020;-72
2023/10/26 07:14:06;;;;;;;46.85;31.30;;;31.20;1.00;;;;;;5071948;28;20590;-71
2023/10/26 07:16:32;;;;;;;42.88;29.15;;;31.30;1.00;;;;;;5065878;28;20028;-72
2023/10/26 07:18:58;;;;;;;48.22;31.92;;;31.20;1.00;;;;;;5057575;28;20025;-71
2023/10/26 07:21:23;;;;;;;50.53;33.33;;;31.20;1.00;;;;;;5057036;28;20119;-71
2023/10/26 07:23:49;;;;;;;55.20;34.53;;;31.10;1.00;;;;;;5073032;28;20024;-71
2023/10/26 07:26:18;;;;;;;57.60;35.75;;;31.20;1.00;;;;;;5065202;28;20497;-71
2023/10/26 07:28:43;;;;;;;47.80;32.50;;;31.20;1.00;;;;;;5069507;28;20086;-71
2023/10/26 07:31:17;;;;;;;46.55;31.13;;;31.20;1.00;;;;;;5074479;28;20036;-72
2023/10/26 07:33:42;;;;;;;47.33;29.35;;;31.30;1.00;;;;;;5066783;28;20041;-71
2023/10/26 07:36:08;;;;;;;42.08;29.33;;;31.30;1.00;;;;;;5066689;28;20021;-71
2023/10/26 07:38:35;;;;;;;42.80;29.58;;;31.30;1.00;;;;;;5050281;28;20028;-61
2023/10/26 07:41:03;;;;;;;40.17;28.63;;;31.30;1.00;;;;;;5070754;28;20039;-60
2023/10/26 07:43:29;;;;;;;45.83;29.30;;;31.30;1.00;;;;;;5061867;28;20024;-62
2023/10/26 07:45:55;;;;;;;40.17;27.40;;;31.30;1.00;;;;;;5068772;28;20029;-61
2023/10/26 07:48:20;;;;;;;40.88;28.20;;;31.40;1.00;;;;;;5071061;28;20090;-61
2023/10/26 07:50:46;;;;;;;39.22;28.50;;;31.30;1.00;;;;;;5071558;28;20389;-61
2023/10/26 07:53:14;;;;;;;40.35;29.02;;;31.30;1.00;;;;;;5061292;28;20355;-61
2023/10/26 07:55:39;;;;;;;39.90;28.88;;;31.30;1.00;;;;;;5070036;28;20033;-60
2023/10/26 07:58:06;;;;;;;46.63;28.45;;;31.30;1.00;;;;;;5066746;28;20081;-72
2023/10/26 08:00:32;;;;;;;42.50;28.95;;;31.40;1.00;;;;;;5069881;28;20119;-64
2023/10/26 08:02:59;;;;;;;44.70;29.80;;;31.40;1.00;;;;;;5050973;28;20512;-70
2023/10/26 08:05:25;;;;;;;42.70;29.10;;;31.50;1.00;;;;;;5062972;28;20486;-66
2023/10/26 08:07:52;;;;;;;42.92;28.92;;;31.50;1.00;;;;;;5046565;28;20493;-62
2023/10/26 08:10:17;;;;;;;42.90;28.52;;;31.60;1.00;;;;;;5068457;28;20021;-64
2023/10/26 08:12:43;;;;;;;42.80;29.95;;;31.60;1.00;;;;;;5055996;28;20084;-65
2023/10/26 08:15:09;;;;;;;44.17;29.25;;;31.60;1.00;;;;;;5073772;28;20013;-64
2023/10/26 08:17:35;;;;;;;39.83;28.67;;;31.50;1.00;;;;;;5049945;28;20033;-61
2023/10/26 08:20:07;;;;;;;44.13;30.40;;;31.50;1.00;;;;;;5072044;28;21031;-66
2023/10/26 08:22:33;;;;;;;44.50;28.98;;;31.60;1.00;;;;;;5054267;28;20028;-59
2023/10/26 08:24:59;;;;;;;42.65;28.95;;;31.60;1.00;;;;;;5062897;28;20048;-60
2023/10/26 08:27:25;;;;;;;42.83;29.45;;;31.70;1.00;;;;;;5066660;28;20379;-60
2023/10/26 08:29:51;;;;;;;40.25;28.90;;;31.70;1.00;;;;;;5072040;28;20050;-53
2023/10/26 08:32:17;;;;;;;44.55;30.08;;;31.70;1.00;;;;;;5067083;28;20108;-51
2023/10/26 08:34:44;;;;;;;44.65;30.55;;;31.70;1.00;;;;;;5052258;28;20039;-55
2023/10/26 08:37:10;;;;;;;43.20;28.15;;;31.70;1.00;;;;;;5083934;28;20534;-55
2023/10/26 08:39:36;;;;;;;41.15;28.38;;;31.70;1.00;;;;;;5063115;28;20037;-60
2023/10/26 08:42:03;;;;;;;40.33;28.80;;;;;;;;;;5058568;28;20037;-61
2023/10/26 08:44:30;;;;;;;42.42;27.45;;;;;;;;;;5076360;28;20469;-59
2023/10/26 08:47:02;;;;;;;42.38;28.88;;;;;;;;;;5068021;28;20024;-59
2023/10/26 08:49:30;;;;;;;40.97;27.55;;;;;;;;;;5069057;28;20116;-54
2023/10/26 08:51:56;;;;;;;42.38;29.45;;;;;;;;;;5072505;28;20036;-58
2023/10/26 08:54:22;;;;;;;44.85;30.88;;;;;;;;;;5046714;28;20043;-51
2023/10/26 08:56:48;;;;;;;45.13;28.77;;;;;;;;;;5057492;28;20120;-58
2023/10/26 08:59:14;;;;;;;52.65;32.95;;;;;;;;;;5084286;28;20432;-58
2023/10/26 09:01:45;;;;;;;48.30;30.55;;;;;;;;;;5064857;28;20045;-60
2023/10/26 09:04:12;;;;;;;56.38;30.60;;;;;;;;;;5051948;28;20040;-60
2023/10/26 09:06:44;;;;;;;48.67;32.10;;;;;;;;;;5065369;28;20032;-64
2023/10/26 09:09:10;;;;;;;47.13;31.85;;;;;;;;;;5047150;28;20016;-70
2023/10/26 09:11:36;;;;;;;45.30;30.63;;;;;;;;;;5070470;28;20029;-70
2023/10/26 09:14:18;;;;;;;41.65;30.10;;;;;;;;;;5047937;28;20367;-67
2023/10/26 09:16:46;;;;;;;45.88;31.50;;;;;;;;;;5072913;28;20020;-72
2023/10/26 09:19:12;;;;;;;47.53;29.65;;;;;;;;;;5073684;28;20103;-73
2023/10/26 09:21:55;;;;;;;39.72;28.92;;;;;;;;;;5076155;28;20063;-72
2023/10/26 09:24:25;;;;;;;40.83;27.73;;;;;;;;;;5062784;28;20016;-66
2023/10/26 09:26:52;;;;;;;35.65;25.85;;;;;;;;;;5073821;28;20048;-66
2023/10/26 09:29:19;;;;;;;35.15;24.58;;;;;;;;;;5074594;28;20029;-66
2023/10/26 09:31:53;;;;;;;33.38;24.55;;;;;;;;;;5078670;28;20154;-61
2023/10/26 09:34:19;;;;;;;37.20;24.45;;;;;;;;;;5052071;28;20166;-60
2023/10/26 09:36:58;;;;;;;33.90;23.55;;;;;;;;;;5073334;28;20355;-62
2023/10/26 09:39:25;;;;;;;36.75;24.30;;;;;;;;;;5069897;28;20492;-66
2023/10/26 09:41:51;;;;;;;35.25;23.38;;;;;;;;;;5068533;28;20077;-74
2023/10/26 09:44:17;;;;;;;34.75;23.73;;;;;;;;;;5072414;28;20021;-66
2023/10/26 09:46:43;;;;;;;32.22;24.65;;;;;;;;;;5066954;28;20074;-64
2023/10/26 09:49:09;;;;;;;39.00;27.45;;;;;;;;;;5071652;28;20061;-68
2023/10/26 09:51:35;;;;;;;34.53;26.60;;;;;;;;;;5063389;28;20037;-70
2023/10/26 09:54:04;;;;;;;37.90;24.45;;;;;;;;;;5076215;28;20514;-65
2023/10/26 09:56:31;;;;;;;37.28;25.88;;;;;;;;;;5076617;28;20388;-59
2023/10/26 09:58:59;;;;;;;41.20;25.85;;;;;;;;;;5073560;28;20103;-63
2023/10/26 10:01:33;;;;;;;39.63;26.30;;;;;;;;;;5075411;28;20047;-66
2023/10/26 10:03:59;;;;;;;38.83;25.45;;;;;;;;;;5067328;28;20012;-56
2023/10/26 10:06:44;;;;;;;35.72;25.15;;;;;;;;;;5050831;28;20029;-55
2023/10/26 10:09:13;;;;;;;28.77;21.30;;;;;;;;;;5069711;28;20047;-54
2023/10/26 10:11:40;;;;;;;33.42;23.52;;;;;;;;;;5051557;28;20033;-54
2023/10/26 10:14:06;;;;;;;33.55;23.70;;;;;;;;;;5060217;28;20021;-52
2023/10/26 10:16:35;;;;;;;32.90;25.05;;;;;;;;;;5066046;28;20029;-60
2023/10/26 10:19:18;;;;;;;36.70;24.73;;;;;;;;;;5068516;28;20033;-60
2023/10/26 10:21:44;;;;;;;32.78;23.05;;;;;;;;;;5049527;28;20037;-61
2023/10/26 10:24:10;;;;;;;33.40;23.05;;;;;;;;;;5067970;28;20021;-61
2023/10/26 10:26:55;;;;;;;34.03;25.58;;;;;;;;;;5071139;28;20086;-61
2023/10/26 10:29:21;;;;;;;32.38;23.60;;;;;;;;;;5052429;28;20028;-61
2023/10/26 10:32:00;;;;;;;31.13;23.00;;;;;;;;;;5071857;28;20485;-61
2023/10/26 10:34:29;;;;;;;32.83;22.73;;;;;;;;;;5053721;28;20023;-61
2023/10/26 10:37:08;;;;;;;32.88;24.13;;;;;;;;;;5045495;28;20024;-61
2023/10/26 10:39:34;;;;;;;31.55;23.10;;;;;;;;;;5071987;28;20427;-61
2023/10/26 10:42:00;;;;;;;33.45;23.75;;;;;;;;;;5072127;28;20098;-61
2023/10/26 10:44:27;;;;;;;33.80;24.05;;;;;;;;;;5053990;28;20052;-61
2023/10/26 10:46:53;;;;;;;33.10;23.08;;;;;;;;;;5070289;28;20066;-61
2023/10/26 10:49:23;;;;;;;28.05;21.45;;;;;;;;;;5064835;28;20441;-61
2023/10/26 10:51:50;;;;;;;30.38;22.67;;;;;;;;;;5074722;28;20021;-61
2023/10/26 10:54:20;;;;;;;35.88;25.05;;;;;;;;;;5067292;28;20032;-61
2023/10/26 10:56:48;;;;;;;33.22;23.23;;;;;;;;;;5071672;28;20495;-61
2023/10/26 10:59:27;;;;;;;31.50;23.13;;;;;;;;;;5076044;28;20063;-61
2023/10/26 11:02:09;;;;;;;32.35;23.25;;;;;;;;;;5075885;28;20056;-61
2023/10/26 11:04:35;;;;;;;43.80;29.30;;;;;;;;;;5057923;28;20027;-61
2023/10/26 11:07:01;;;;;;;39.72;26.10;;;;;;;;;;5060683;28;20029;-61
2023/10/26 11:09:31;;;;;;;35.85;25.60;;;;;;;;;;5075553;28;20475;-61
2023/10/26 11:12:07;;;;;;;38.30;25.80;;;;;;;;;;5075769;28;20048;-61
2023/10/26 11:14:33;;;;;;;42.75;27.45;;;;;;;;;;5074294;28;20032;-63
2023/10/26 11:17:00;;;;;;;36.45;27.77;;;;;;;;;;5059363;28;20042;-61
2023/10/26 11:19:26;;;;;;;34.17;24.45;;;;;;;;;;5056582;28;20020;-62
2023/10/26 11:21:55;;;;;;;39.00;25.60;;;;;;;;;;5057423;28;20039;-62
2023/10/26 11:24:30;;;;;;;49.30;29.25;;;;;;;;;;5064638;28;20029;-65
2023/10/26 11:27:25;;;;;;;40.05;26.35;;;;;;;;;;5077778;28;20035;-63
2023/10/26 11:29:51;;;;;;;;;;;;;;;;;;5035504;28;20119;-65
2023/10/26 11:32:21;;;;;;;36.25;25.52;;;;;;;;;;5077360;28;19995;-67
2023/10/26 11:35:20;;;;;;;32.42;24.65;;;;;;;;;;5083643;28;20019;-67
2023/10/26 11:37:48;;;;;;;47.05;28.23;;;;;;;;;;5043882;28;20083;-64
2023/10/26 11:40:15;;;;;;;40.00;26.52;;;;;;;;;;5066753;28;20036;-62
2023/10/26 11:42:44;;;;;;;41.28;27.17;;;;;;;;;;5075990;28;20096;-62
2023/10/26 11:45:11;;;;;;;39.28;27.20;;;;;;;;;;5057599;28;20077;-63
2023/10/26 11:47:48;;;;;;;41.08;27.27;;;;;;;;;;5084246;28;20020;-65
2023/10/26 11:50:26;;;;;;;37.85;27.95;;;;;;;;;;5073789;28;20423;-67
2023/10/26 11:52:56;;;;;;;37.05;26.17;;;;;;;;;;5079960;28;20027;-61
2023/10/26 11:55:23;;;;;;;36.08;27.00;;;;;;;;;;5065804;28;20025;-69
2023/10/26 11:57:50;;;;;;;39.28;27.30;;;;;;;;;;5078522;28;20041;-65
2023/10/26 12:00:17;;;;;;;42.40;28.95;;;;;;;;;;5063387;28;20082;-61
2023/10/26 12:02:44;;;;;;;39.72;28.42;;;;;;;;;;5065503;28;20024;-64
2023/10/26 12:05:13;;;;;;;40.45;28.50;;;;;;;;;;5072470;28;20032;-64
2023/10/26 12:07:39;;;;;;;42.47;28.35;;;;;;;;;;5061825;28;20031;-60
2023/10/26 12:10:05;;;;;;;34.75;26.23;;;;;;;;;;5079777;28;20048;-60
2023/10/26 12:12:31;;;;;;;43.08;28.00;;;;;;;;;;5071574;28;20025;-61
2023/10/26 12:14:57;;;;;;;40.75;27.10;;;;;;;;;;5066564;28;20048;-58
2023/10/26 12:17:23;;;;;;;38.28;28.40;;;;;;;;;;5075565;28;20177;-62
2023/10/26 12:19:49;;;;;;;36.30;25.70;;;;;;;;;;5079337;28;20040;-70
2023/10/26 12:22:15;;;;;;;37.55;27.05;;;;;;;;;;5058587;28;20047;-67
2023/10/26 12:24:41;;;;;;;35.25;26.83;;;;;;;;;;5055857;28;20027;-64
2023/10/26 12:27:07;;;;;;;35.08;27.30;;;;;;;;;;5073359;28;20465;-61
2023/10/26 12:29:33;;;;;;;35.55;26.02;;;;;;;;;;5067135;28;20051;-57
2023/10/26 12:31:59;;;;;;;40.13;25.85;;;;;;;;;;5070772;28;20131;-60
2023/10/26 12:34:25;;;;;;;33.28;25.88;;;;;;;;;;5071131;28;20049;-70
2023/10/26 12:36:51;;;;;;;37.13;25.90;;;;;;;;;;5078743;28;20090;-64
2023/10/26 12:39:17;;;;;;;36.63;26.58;;;;;;;;;;5071726;28;20071;-63
2023/10/26 12:41:43;;;;;;;36.60;25.42;;;;;;;;;;5070315;28;20119;-63
2023/10/26 12:44:09;;;;;;;31.27;24.10;;;;;;;;;;5041877;28;20025;-67
2023/10/26 12:46:35;;;;;;;30.70;24.33;;;;;;;;;;5064660;28;20120;-64
2023/10/26 12:49:01;;;;;;;35.20;26.02;;;;;;;;;;5065618;28;20033;-61
2023/10/26 12:51:27;;;;;;;34.85;25.00;;;;;;;;;;5062335;28;20036;-61
2023/10/26 12:53:53;;;;;;;37.13;24.65;;;;;;;;;;5059808;28;20061;-60
2023/10/26 12:56:19;;;;;;;33.35;24.95;;;;;;;;;;5077538;28;20471;-60
2023/10/26 12:58:45;;;;;;;35.47;26.17;;;;;;;;;;5077030;28;20017;-60
2023/10/26 13:01:11;;;;;;;33.85;25.48;;;;;;;;;;5075956;28;20417;-59
2023/10/26 13:03:37;;;;;;;34.08;26.52;;;;;;;;;;5074194;28;20021;-61
2023/10/26 13:06:03;;;;;;;31.13;25.85;;;;;;;;;;5060736;28;20119;-58
2023/10/26 13:08:29;;;;;;;34.47;25.58;;;;;;;;;;5053565;28;20462;-61
2023/10/26 13:10:55;;;;;;;32.25;25.83;;;;;;;;;;5073239;28;20067;-62
2023/10/26 13:13:20;;;;;;;39.95;27.23;;;;;;;;;;5069848;28;20172;-61
2023/10/26 13:15:46;;;;;;;31.45;25.67;;;;;;;;;;5072964;28;20024;-66
2023/10/26 13:18:12;;;;;;;33.85;25.00;;;;;;;;;;5072754;28;20450;-64
2023/10/26 13:20:38;;;;;;;34.80;26.75;;;;;;;;;;5069766;28;20040;-64
2023/10/26 13:23:05;;;;;;;32.17;25.67;;;;;;;;;;5070011;28;20123;-60
2023/10/26 13:25:31;;;;;;;33.00;25.20;;;;;;;;;;5058886;28;20033;-60
2023/10/26 13:27:59;;;;;;;30.98;25.95;;;;;;;;;;5071038;28;20375;-60
2023/10/26 13:30:26;;;;;;;34.88;26.48;;;;;;;;;;5069833;28;20624;-60
2023/10/26 13:32:52;;;;;;;31.63;24.83;;;;;;;;;;5079246;28;20119;-60
2023/10/26 13:35:18;;;;;;;33.78;25.33;;;;;;;;;;5068720;28;20107;-58
2023/10/26 13:37:44;;;;;;;32.70;26.08;;;;;;;;;;5059951;28;20029;-59
2023/10/26 13:40:10;;;;;;;31.52;25.35;;;;;;;;;;5068569;28;20063;-58
2023/10/26 13:42:36;;;;;;;33.88;25.95;;;;;;;;;;5068004;28;20025;-59
2023/10/26 13:45:02;;;;;;;30.10;26.42;;;;;;;;;;5071011;28;20074;-58
2023/10/26 13:47:29;;;;;;;35.78;26.95;;;;;;;;;;5075172;28;20091;-58
2023/10/26 13:49:55;;;;;;;30.17;25.38;;;;;;;;;;5072565;28;20032;-58
2023/10/26 13:52:21;;;;;;;31.00;25.50;;;;;;;;;;5070246;28;20463;-61
2023/10/26 13:54:47;;;;;;;28.83;23.63;;;;;;;;;;5079184;28;20056;-59
2023/10/26 13:57:13;;;;;;;33.72;25.77;;;;;;;;;;5077509;28;20059;-60
2023/10/26 13:59:40;;;;;;;31.88;26.20;;;;;;;;;;5064862;28;20116;-60
2023/10/26 14:02:06;;;;;;;28.35;22.88;;;;;;;;;;5073908;28;20036;-61